KDRA/DRA METAR and TAF weather

Enter ICAO airport designator
Station Type Date Time Source
KDRA METAR 2021/04/14 18:53 UTC NOAA

KDRA 141853Z AUTO 24009G15KT 200V280 10SM CLR 18/M04 A2982 RMK AO2 SLP063 T01781039


Station Type Date Time Source
KDRA Decoded METAR 2021/04/14 18:53 UTC NOAA

DESERT ROCK AIRPORT, NV, United States (KDRA) 36-38N 116-02W 1006M
Apr 14, 2021 - 02:53 PM EDT / 2021.04.14 1853 UTC
Wind: from the WSW (240 degrees) at 10 MPH (9 KT) gusting to 17 MPH (15 KT) (direction variable):0
Visibility: 10 mile(s):0
Sky conditions: clear
Temperature: 64.0 F (17.8 C)
Dew Point: 25.0 F (-3.9 C)
Relative Humidity: 22%
Pressure (altimeter): 29.82 in. Hg (1009 hPa)
ob: KDRA 141853Z AUTO 24009G15KT 200V280 10SM CLR 18/M04 A2982 RMK AO2 SLP063 T01781039
cycle: 19

Station Type Date Time Source
KDRA TAF 2011/12/07 06:36 UTC NOAA

TAF KDRA 070532Z 0706/0806 VRB04KT P6SM SKC

Example: see airport list